Time;durP1;ratioP1;P1;durP2;ratioP2;P2;SDS_P1;SDS_P2;PMS_P1;PMS_P2;Temp;Humidity;BMP_temperature;BMP_pressure;BME280_temperature;BME280_humidity;BME280_pressure;Samples;Min_cycle;Max_cycle;Signal;HPM_P1;HPM_P2
2023/07/25 00:01:37;;;;;;;4.00;2.42;;;17.70;99.90;;;19.16;62.61;96691.09;5032656;28;20053;-51
2023/07/25 00:04:05;;;;;;;7.95;2.55;;;17.70;99.90;;;19.18;62.60;96683.59;5032666;28;20053;-52
2023/07/25 00:06:33;;;;;;;6.18;3.80;;;17.70;99.90;;;19.18;62.57;96679.00;5032382;28;20053;-51
2023/07/25 00:09:00;;;;;;;7.22;2.97;;;17.70;99.90;;;19.19;62.62;96682.50;5032639;28;20052;-51
2023/07/25 00:11:28;;;;;;;5.28;3.03;;;17.70;99.90;;;19.20;62.53;96686.84;5032682;28;20061;-51
2023/07/25 00:13:56;;;;;;;4.95;2.97;;;17.70;99.90;;;19.21;62.35;96680.38;5028478;28;20050;-52
2023/07/25 00:16:23;;;;;;;4.53;2.97;;;17.70;99.90;;;19.20;62.54;96676.88;5032219;28;20052;-51
2023/07/25 00:18:51;;;;;;;3.95;2.63;;;17.80;99.90;;;19.15;62.87;96679.47;5030897;28;20038;-52
2023/07/25 00:21:19;;;;;;;3.92;2.65;;;17.70;99.90;;;19.14;62.60;96672.44;5023139;28;20045;-51
2023/07/25 00:23:47;;;;;;;3.92;2.72;;;17.70;99.90;;;19.17;62.80;96673.84;5032269;28;20061;-51
2023/07/25 00:26:14;;;;;;;3.88;3.35;;;17.70;99.90;;;19.18;62.73;96670.91;5032612;28;20040;-51
2023/07/25 00:28:42;;;;;;;4.45;2.70;;;17.70;99.90;;;19.19;62.70;96672.56;5031731;28;20041;-52
2023/07/25 00:31:09;;;;;;;5.05;2.95;;;17.70;99.90;;;19.22;62.67;96668.56;5031723;28;20056;-52
2023/07/25 00:33:37;;;;;;;5.28;3.30;;;17.70;99.90;;;19.19;62.75;96663.63;5032684;28;20041;-51
2023/07/25 00:36:05;;;;;;;3.63;2.90;;;17.70;99.90;;;19.19;62.72;96661.75;5029993;28;20420;-50
2023/07/25 00:38:32;;;;;;;3.65;2.95;;;17.70;99.90;;;19.16;62.81;96654.13;5031528;28;20060;-51
2023/07/25 00:41:00;;;;;;;3.65;2.42;;;17.70;99.90;;;19.16;62.74;96648.75;5030530;28;20052;-52
2023/07/25 00:43:27;;;;;;;5.82;2.80;;;17.70;99.90;;;19.15;62.97;96649.78;5030381;28;20048;-51
2023/07/25 00:45:55;;;;;;;3.80;2.60;;;17.70;99.90;;;19.18;62.67;96645.81;5031614;28;20042;-50
2023/07/25 00:48:23;;;;;;;6.40;3.30;;;17.70;99.90;;;19.19;62.71;96642.88;5029741;28;20052;-51
2023/07/25 00:50:51;;;;;;;4.38;2.70;;;17.70;99.90;;;19.18;62.77;96643.13;5030954;28;20053;-48
2023/07/25 00:53:18;;;;;;;3.60;2.70;;;17.80;99.90;;;19.17;62.60;96641.47;5030105;28;20041;-54
2023/07/25 00:55:48;;;;;;;3.50;2.55;;;17.70;99.90;;;19.16;62.57;96639.84;5031608;28;20048;-49
2023/07/25 00:58:17;;;;;;;5.95;2.53;;;17.70;99.90;;;19.20;62.39;96630.19;5029249;28;20046;-51
2023/07/25 01:00:45;;;;;;;3.55;2.50;;;17.70;99.90;;;19.18;62.32;96627.75;5031336;28;20037;-53
2023/07/25 01:03:13;;;;;;;3.28;2.17;;;17.70;99.90;;;19.16;62.42;96627.16;5030185;28;20053;-50
2023/07/25 01:05:46;;;;;;;6.50;2.83;;;17.70;99.90;;;19.19;62.24;96620.44;5013392;28;20068;-51
2023/07/25 01:08:14;;;;;;;3.55;2.70;;;17.80;99.90;;;19.13;62.46;96621.44;5021277;28;20057;-51
2023/07/25 01:10:42;;;;;;;7.25;2.97;;;17.80;99.90;;;19.14;62.33;96620.38;5031243;28;20052;-49
2023/07/25 01:13:09;;;;;;;5.05;2.83;;;17.70;99.90;;;19.13;62.41;96611.44;5030055;28;20045;-50
2023/07/25 01:15:37;;;;;;;3.53;2.65;;;17.80;99.90;;;19.12;62.45;96615.22;5030000;28;20057;-51
2023/07/25 01:18:07;;;;;;;5.38;3.25;;;17.70;99.90;;;19.13;62.41;96621.44;5028375;28;20045;-53
2023/07/25 01:20:35;;;;;;;3.67;2.53;;;17.70;99.90;;;19.08;62.49;96614.06;5030042;28;20409;-50
2023/07/25 01:23:06;;;;;;;4.32;2.90;;;17.70;99.90;;;19.15;62.26;96630.09;5013545;28;20052;-53
2023/07/25 01:25:35;;;;;;;3.95;2.72;;;17.70;99.90;;;19.11;62.19;96620.84;5031244;28;20040;-53
2023/07/25 01:28:03;;;;;;;4.00;2.65;;;17.70;99.90;;;19.15;62.23;96612.03;5030717;28;20040;-51
2023/07/25 01:30:30;;;;;;;5.85;2.60;;;17.70;99.90;;;19.17;61.98;96619.88;5031044;28;20049;-52
2023/07/25 01:32:59;;;;;;;3.50;2.22;;;17.70;99.90;;;19.18;61.90;96603.47;5029416;28;20064;-50
2023/07/25 01:35:27;;;;;;;5.10;2.78;;;17.70;99.90;;;19.18;61.92;96608.84;5021891;28;20053;-50
2023/07/25 01:37:54;;;;;;;4.05;3.03;;;17.70;99.90;;;19.20;61.86;96614.81;5013246;28;20045;-50
2023/07/25 01:40:22;;;;;;;5.40;2.75;;;17.80;99.90;;;19.17;61.89;96609.09;5030695;28;20041;-48
2023/07/25 01:42:50;;;;;;;5.32;3.40;;;17.80;99.90;;;19.23;61.78;96600.88;5030599;28;20493;-51
2023/07/25 01:45:18;;;;;;;9.32;3.05;;;17.80;99.90;;;19.19;61.83;96590.78;5029509;28;20049;-51
2023/07/25 01:47:45;;;;;;;4.03;3.33;;;17.80;99.90;;;19.21;61.67;96581.41;5030687;28;20042;-51
2023/07/25 01:50:13;;;;;;;3.90;3.30;;;17.70;99.90;;;19.23;61.80;96573.03;5028751;28;20056;-52
2023/07/25 01:52:41;;;;;;;5.28;3.00;;;17.70;99.90;;;19.21;61.61;96569.78;5028989;28;20394;-54
2023/07/25 01:55:09;;;;;;;3.80;2.97;;;17.70;99.90;;;19.20;61.69;96563.56;5030997;28;20056;-54
2023/07/25 01:57:37;;;;;;;4.55;2.53;;;17.70;99.90;;;19.20;61.47;96560.88;5030414;28;20038;-51
2023/07/25 02:00:05;;;;;;;3.85;2.53;;;17.70;99.90;;;19.22;61.56;96566.84;5029513;28;20056;-53
2023/07/25 02:02:39;;;;;;;6.18;2.97;;;17.70;99.90;;;19.18;61.64;96564.88;5032197;28;20497;-50
2023/07/25 02:05:07;;;;;;;3.05;2.67;;;17.70;99.90;;;19.20;61.40;96554.66;5030986;28;20045;-53
2023/07/25 02:07:36;;;;;;;3.97;3.03;;;17.70;99.90;;;19.18;61.39;96552.19;5029208;28;20046;-52
2023/07/25 02:10:05;;;;;;;4.28;2.22;;;17.60;99.90;;;19.21;61.46;96556.28;5013467;28;20054;-51
2023/07/25 02:12:32;;;;;;;4.07;2.80;;;17.70;99.90;;;19.21;61.27;96565.22;5031037;28;20045;-52
2023/07/25 02:15:00;;;;;;;4.60;2.60;;;17.70;99.90;;;19.19;61.30;96559.25;5031168;28;20042;-54
2023/07/25 02:17:27;;;;;;;5.57;3.00;;;17.60;99.90;;;19.18;61.32;96563.00;5011969;28;20461;-53
2023/07/25 02:19:55;;;;;;;4.22;2.28;;;17.60;99.90;;;19.15;61.30;96560.75;5030786;28;20048;-49
2023/07/25 02:22:22;;;;;;;4.88;3.25;;;17.60;99.90;;;19.10;61.45;96568.78;5013064;28;20045;-52
2023/07/25 02:24:51;;;;;;;4.03;2.63;;;17.60;99.90;;;19.10;61.49;96563.38;5030493;28;20046;-54
2023/07/25 02:27:19;;;;;;;3.92;2.75;;;17.60;99.90;;;19.10;61.55;96565.28;5028596;28;20424;-52
2023/07/25 02:29:47;;;;;;;4.68;2.83;;;17.60;99.90;;;19.12;61.47;96574.75;5030050;28;20044;-53
2023/07/25 02:32:14;;;;;;;5.05;2.90;;;17.60;99.90;;;19.13;61.51;96560.19;5029241;28;20089;-51
2023/07/25 02:34:42;;;;;;;5.75;2.67;;;17.60;99.90;;;19.15;61.51;96554.56;5028927;28;20048;-49
2023/07/25 02:37:09;;;;;;;4.25;2.75;;;17.60;99.90;;;19.12;61.49;96544.28;5028589;28;20048;-51
2023/07/25 02:39:37;;;;;;;3.90;2.80;;;17.60;99.90;;;19.11;61.61;96539.94;5030241;28;20033;-53
2023/07/25 02:42:05;;;;;;;3.42;2.60;;;17.60;99.90;;;19.13;61.47;96548.59;5029508;28;20056;-50
2023/07/25 02:44:32;;;;;;;4.22;2.90;;;17.60;99.90;;;19.13;61.45;96548.59;5028542;28;20045;-53
2023/07/25 02:47:00;;;;;;;5.20;2.85;;;17.60;99.90;;;19.02;61.75;96588.06;5028427;28;20416;-51
2023/07/25 02:49:27;;;;;;;4.47;2.65;;;17.50;99.90;;;18.87;61.90;96578.59;5028395;28;20041;-51
2023/07/25 02:51:55;;;;;;;4.07;2.60;;;17.30;99.90;;;18.84;61.97;96580.94;5030015;28;20465;-51
2023/07/25 02:54:23;;;;;;;5.57;2.60;;;17.20;99.90;;;18.77;62.27;96583.75;5029287;28;20068;-50
2023/07/25 02:56:50;;;;;;;4.10;3.05;;;17.10;99.90;;;18.72;62.23;96569.38;5012139;28;20056;-53
2023/07/25 02:59:19;;;;;;;3.70;3.08;;;17.10;99.90;;;18.69;62.28;96571.47;5032253;28;20049;-52
2023/07/25 03:01:46;;;;;;;3.75;3.17;;;17.10;99.90;;;18.77;62.23;96553.31;5032327;28;20045;-50
2023/07/25 03:04:14;;;;;;;4.30;2.90;;;17.10;99.90;;;18.74;62.07;96564.56;5032303;28;20045;-50
2023/07/25 03:06:42;;;;;;;4.28;3.20;;;17.10;99.90;;;18.62;62.26;96556.50;5032087;28;20501;-52
2023/07/25 03:09:09;;;;;;;5.07;2.42;;;17.00;99.90;;;18.60;62.22;96550.53;5031671;28;20402;-51
2023/07/25 03:11:37;;;;;;;7.20;3.80;;;16.90;99.90;;;18.59;62.12;96532.72;5032368;28;20424;-52
2023/07/25 03:14:05;;;;;;;3.53;2.65;;;16.90;99.90;;;18.56;62.24;96534.00;5032042;28;20615;-48
2023/07/25 03:16:32;;;;;;;4.47;2.53;;;16.80;99.90;;;18.53;62.21;96522.88;5031122;28;20041;-47
2023/07/25 03:19:00;;;;;;;3.53;2.60;;;16.80;99.90;;;18.52;62.21;96514.00;5031452;28;20049;-52
2023/07/25 03:21:27;;;;;;;4.13;3.05;;;16.80;99.90;;;18.45;62.27;96505.22;5032382;28;20052;-51
2023/07/25 03:23:56;;;;;;;6.85;2.72;;;16.80;99.90;;;18.44;62.43;96500.91;5015624;28;20045;-53
2023/07/25 03:26:23;;;;;;;3.42;2.42;;;16.70;99.90;;;18.41;62.35;96502.19;5015384;28;20416;-52
2023/07/25 03:28:51;;;;;;;3.53;2.70;;;16.70;99.90;;;18.39;62.69;96503.47;5031183;28;20057;-48
2023/07/25 03:31:18;;;;;;;3.80;2.63;;;16.70;99.90;;;18.41;62.75;96515.66;5033022;28;20416;-52
2023/07/25 03:33:46;;;;;;;6.10;2.95;;;16.80;99.90;;;18.44;62.52;96525.16;5031908;28;20049;-47
2023/07/25 03:36:14;;;;;;;4.95;3.20;;;16.80;99.90;;;18.47;62.54;96533.56;5031661;28;20076;-50
2023/07/25 03:38:41;;;;;;;7.18;3.13;;;16.80;99.90;;;18.48;62.43;96534.41;5032419;28;20052;-49
2023/07/25 03:41:09;;;;;;;4.70;3.00;;;16.80;99.90;;;18.48;62.45;96537.09;5031873;28;20053;-52
2023/07/25 03:43:36;;;;;;;3.90;2.92;;;16.70;99.90;;;18.46;62.38;96526.53;5032658;28;20489;-50
2023/07/25 03:46:04;;;;;;;4.28;3.20;;;16.70;99.90;;;18.42;62.52;96525.38;5031893;28;20053;-51
2023/07/25 03:48:32;;;;;;;4.13;2.80;;;16.70;99.90;;;18.39;62.69;96523.16;5031499;28;20140;-49
2023/07/25 03:51:00;;;;;;;4.53;3.40;;;16.70;99.90;;;18.42;62.65;96514.59;5031949;28;20045;-48
2023/07/25 03:53:27;;;;;;;5.70;2.72;;;16.70;99.90;;;18.38;62.77;96518.00;5032943;28;20527;-51
2023/07/25 03:55:55;;;;;;;7.38;2.42;;;16.70;99.90;;;18.36;62.76;96518.25;5031738;28;20084;-51
2023/07/25 03:58:23;;;;;;;4.18;2.80;;;16.70;99.90;;;18.40;62.74;96530.19;5014443;28;20053;-55
2023/07/25 04:00:50;;;;;;;5.47;2.97;;;16.70;99.90;;;18.41;62.81;96529.13;5032835;28;20037;-52
2023/07/25 04:03:18;;;;;;;6.13;3.08;;;16.70;99.90;;;18.41;62.88;96534.50;5031502;28;20065;-52
2023/07/25 04:05:46;;;;;;;3.33;2.33;;;16.70;99.90;;;18.40;62.87;96532.91;5031279;28;20412;-50
2023/07/25 04:08:13;;;;;;;3.88;2.75;;;16.70;99.90;;;18.41;63.06;96533.69;5030597;28;20050;-53
2023/07/25 04:10:41;;;;;;;4.15;2.92;;;16.70;99.90;;;18.41;63.01;96529.13;5031525;28;20040;-54
2023/07/25 04:13:08;;;;;;;6.82;3.08;;;16.70;99.90;;;18.44;63.06;96522.47;5032573;28;20045;-48
2023/07/25 04:15:36;;;;;;;3.72;2.45;;;16.70;99.90;;;18.48;62.98;96518.22;5032520;28;20048;-49
2023/07/25 04:18:04;;;;;;;4.43;2.75;;;16.80;99.90;;;18.49;63.03;96515.31;5030262;28;20053;-49
2023/07/25 04:20:31;;;;;;;4.95;3.25;;;16.70;99.90;;;18.50;62.88;96522.31;5033083;28;20053;-51
2023/07/25 04:23:00;;;;;;;8.50;2.83;;;16.80;99.90;;;18.54;62.82;96522.66;5032419;28;20493;-52
2023/07/25 04:25:28;;;;;;;3.92;2.97;;;16.80;99.90;;;18.52;62.85;96527.47;5032650;28;20553;-52
2023/07/25 04:27:56;;;;;;;3.40;3.08;;;16.80;99.90;;;18.51;62.92;96536.59;5031821;28;20412;-55
2023/07/25 04:30:23;;;;;;;5.95;3.35;;;16.70;99.90;;;18.54;62.89;96533.44;5030662;28;20053;-52
2023/07/25 04:32:51;;;;;;;3.97;2.50;;;16.80;99.90;;;18.55;62.86;96540.44;5031373;28;20517;-51
2023/07/25 04:35:19;;;;;;;3.75;2.83;;;16.80;99.90;;;18.59;63.01;96541.63;5030705;28;20060;-53
2023/07/25 04:37:47;;;;;;;4.45;3.00;;;16.90;99.90;;;18.63;62.91;96545.50;5029735;28;20163;-56
2023/07/25 04:40:14;;;;;;;3.90;2.30;;;17.00;99.90;;;18.66;62.68;96539.59;5031822;28;20424;-51
2023/07/25 04:42:42;;;;;;;3.50;2.50;;;17.00;99.90;;;18.64;62.54;96544.41;5030874;28;20046;-53
2023/07/25 04:45:11;;;;;;;4.85;2.70;;;16.90;99.90;;;18.66;62.57;96541.47;5031939;28;20046;-49
2023/07/25 04:47:38;;;;;;;2.45;2.25;;;17.00;99.90;;;18.67;62.63;96543.13;5031307;28;20493;-52
2023/07/25 04:50:07;;;;;;;5.15;2.65;;;16.90;99.90;;;18.71;62.60;96544.28;4997623;28;20064;-50
2023/07/25 04:52:35;;;;;;;3.10;2.20;;;17.00;99.90;;;18.76;62.58;96549.75;5030027;28;20045;-52
2023/07/25 04:55:03;;;;;;;4.50;2.28;;;17.10;99.90;;;18.79;62.31;96553.88;5030325;28;20076;-48
2023/07/25 04:57:30;;;;;;;3.92;2.30;;;17.10;99.90;;;18.79;62.37;96551.19;5029652;28;20049;-52
2023/07/25 04:59:58;;;;;;;3.20;1.80;;;17.10;99.90;;;18.79;62.34;96559.28;5030257;28;20587;-52
2023/07/25 05:02:25;;;;;;;5.95;3.08;;;17.10;99.90;;;18.74;62.96;96562.66;5030548;28;20054;-53
2023/07/25 05:04:53;;;;;;;6.95;2.92;;;17.10;99.90;;;18.67;63.14;96549.34;5031549;28;20052;-50
2023/07/25 05:07:20;;;;;;;4.22;3.30;;;16.90;99.90;;;18.60;63.29;96547.84;5029489;28;20061;-51
2023/07/25 05:10:13;;;;;;;4.13;2.30;;;16.80;99.90;;;18.57;63.38;96553.69;5031844;28;20041;-52
2023/07/25 05:12:41;;;;;;;5.35;2.75;;;16.80;99.90;;;18.60;63.45;96553.22;5030023;28;20042;-52
2023/07/25 05:15:09;;;;;;;2.83;2.30;;;16.80;99.90;;;18.57;63.55;96549.16;5031374;28;20052;-52
2023/07/25 05:17:36;;;;;;;4.72;2.60;;;16.80;99.90;;;18.55;63.67;96555.81;5029613;28;20065;-52
2023/07/25 05:20:05;;;;;;;4.15;2.60;;;16.80;99.90;;;18.58;63.86;96558.84;5031057;28;20045;-54
2023/07/25 05:22:33;;;;;;;3.40;2.30;;;16.90;99.90;;;18.59;63.88;96559.66;5031575;28;20072;-52
2023/07/25 05:25:00;;;;;;;3.60;2.60;;;16.90;99.90;;;18.58;63.64;96556.16;5031178;28;20044;-55
2023/07/25 05:27:28;;;;;;;3.72;2.03;;;17.00;99.90;;;18.58;64.05;96571.50;5030567;28;20048;-55
2023/07/25 05:29:56;;;;;;;3.42;2.70;;;16.90;99.90;;;18.54;64.05;96563.09;5029471;28;20041;-52
2023/07/25 05:32:23;;;;;;;3.47;2.35;;;16.90;99.90;;;18.55;63.94;96566.59;5030720;28;20425;-55
2023/07/25 05:34:51;;;;;;;4.90;2.30;;;16.90;99.90;;;18.55;64.48;96556.63;5030984;28;20047;-54
2023/07/25 05:37:19;;;;;;;3.58;2.05;;;16.90;99.90;;;18.58;64.11;96558.03;5030628;28;20053;-54
2023/07/25 05:39:49;;;;;;;3.38;2.05;;;16.90;99.90;;;18.58;64.23;96561.53;5030819;28;20052;-51
2023/07/25 05:42:17;;;;;;;3.72;2.30;;;16.90;99.90;;;18.61;64.10;96561.09;5013804;28;20045;-53
2023/07/25 05:44:44;;;;;;;3.15;1.95;;;17.00;99.90;;;18.64;64.17;96560.59;5030839;28;20513;-53
2023/07/25 05:47:12;;;;;;;3.45;2.08;;;17.00;99.90;;;18.61;64.40;96560.25;5030525;28;20045;-53
2023/07/25 05:49:39;;;;;;;3.13;2.38;;;16.90;99.90;;;18.62;64.25;96565.41;5029603;28;20527;-53
2023/07/25 05:52:07;;;;;;;3.17;2.28;;;16.90;99.90;;;18.61;64.25;96557.53;5023071;28;20116;-53
2023/07/25 05:54:35;;;;;;;2.92;2.30;;;17.00;99.90;;;18.62;64.10;96560.00;5018919;28;20504;-51
2023/07/25 05:57:03;;;;;;;5.32;2.45;;;16.90;99.90;;;18.66;63.99;96554.97;5023905;28;20123;-52
2023/07/25 05:59:31;;;;;;;3.40;2.33;;;16.90;99.90;;;18.65;64.38;96551.44;5025079;28;20048;-52
2023/07/25 06:01:58;;;;;;;3.42;2.33;;;17.00;99.90;;;18.70;64.42;96548.03;5023490;28;20167;-53
2023/07/25 06:04:26;;;;;;;2.97;1.85;;;17.00;99.90;;;18.74;64.16;96551.06;5025386;28;20049;-51
2023/07/25 06:06:53;;;;;;;5.38;2.20;;;17.10;99.90;;;18.79;64.29;96559.28;5024665;28;20045;-52
2023/07/25 06:09:21;;;;;;;6.00;2.60;;;17.10;99.90;;;18.79;64.51;96556.56;5019696;28;20056;-51
2023/07/25 06:11:49;;;;;;;3.70;2.30;;;17.10;99.90;;;18.79;64.58;96560.06;5029800;28;20061;-51
2023/07/25 06:14:16;;;;;;;3.78;2.30;;;17.10;99.90;;;18.81;64.76;96565.28;5030538;28;20421;-52
2023/07/25 06:16:44;;;;;;;3.38;2.08;;;17.10;99.90;;;18.85;64.83;96571.81;5026629;28;20041;-50
2023/07/25 06:19:12;;;;;;;4.88;3.28;;;17.10;99.90;;;18.86;64.83;96571.59;5030893;28;20048;-54
2023/07/25 06:21:40;;;;;;;4.63;2.80;;;17.10;99.90;;;18.89;64.98;96570.28;5029632;28;20049;-52
2023/07/25 06:24:07;;;;;;;5.50;3.20;;;17.20;99.90;;;18.91;65.15;96575.44;5030216;28;20501;-55
2023/07/25 06:26:35;;;;;;;4.57;3.17;;;17.20;99.90;;;18.95;65.07;96581.97;5030190;28;20045;-53
2023/07/25 06:29:02;;;;;;;4.97;3.38;;;17.20;99.90;;;18.96;65.21;96559.31;5029257;28;20037;-50
2023/07/25 06:31:30;;;;;;;6.22;3.17;;;17.20;99.90;;;19.01;65.29;96560.25;5030265;28;20068;-50
2023/07/25 06:33:58;;;;;;;3.53;2.95;;;17.30;99.90;;;19.04;65.35;96570.56;5031105;28;20046;-54
2023/07/25 06:36:26;;;;;;;6.10;3.08;;;17.40;99.90;;;19.05;65.32;96563.28;5032904;28;20057;-53
2023/07/25 06:38:54;;;;;;;4.60;3.00;;;17.40;99.90;;;19.11;65.34;96551.53;5033858;28;20033;-55
2023/07/25 06:41:21;;;;;;;4.60;3.10;;;17.40;99.90;;;19.12;65.23;96550.47;5034071;28;20053;-54
2023/07/25 06:43:50;;;;;;;5.72;2.72;;;17.40;99.90;;;19.13;65.22;96544.00;5032990;28;20042;-54
2023/07/25 06:46:20;;;;;;;4.32;2.78;;;17.40;99.90;;;19.15;65.26;96551.88;5032354;28;20061;-51
2023/07/25 06:48:48;;;;;;;3.85;2.13;;;17.40;99.90;;;19.07;64.96;96548.50;5033170;28;20057;-53
2023/07/25 06:51:15;;;;;;;3.85;2.92;;;17.30;99.90;;;19.06;65.24;96557.66;5034098;28;20052;-52
2023/07/25 06:53:43;;;;;;;6.65;3.03;;;17.30;99.90;;;19.08;65.25;96543.94;5033888;28;20049;-51
2023/07/25 06:56:11;;;;;;;5.25;2.60;;;17.30;99.90;;;19.07;65.37;96540.41;5034134;28;20075;-54
2023/07/25 06:58:39;;;;;;;4.35;2.08;;;17.30;99.90;;;19.05;65.40;96533.63;5033457;28;20508;-51
2023/07/25 07:01:07;;;;;;;4.95;2.72;;;17.30;99.90;;;19.10;65.51;96541.81;5033853;28;20053;-52
2023/07/25 07:03:34;;;;;;;5.22;2.90;;;17.30;99.90;;;19.13;65.54;96527.00;5033753;28;20049;-53
2023/07/25 07:06:02;;;;;;;6.00;2.80;;;17.40;99.90;;;19.11;65.55;96524.53;5034291;28;20045;-54
2023/07/25 07:08:29;;;;;;;3.72;2.53;;;17.40;99.90;;;19.11;65.70;96519.16;5032373;28;20048;-53
2023/07/25 07:10:57;;;;;;;3.45;2.25;;;17.30;99.90;;;19.14;65.84;96518.69;5024503;28;20089;-52
2023/07/25 07:13:25;;;;;;;3.17;2.60;;;17.40;99.90;;;19.18;65.91;96511.72;5032441;28;20052;-54
2023/07/25 07:15:52;;;;;;;5.53;2.40;;;17.40;99.90;;;19.22;65.92;96506.69;5033364;28;20057;-50
2023/07/25 07:18:20;;;;;;;6.35;2.25;;;17.50;99.90;;;19.25;65.77;96504.31;5032230;28;20046;-51
2023/07/25 07:20:49;;;;;;;2.63;2.20;;;17.50;99.90;;;19.31;65.60;96504.38;5033169;28;20053;-53
2023/07/25 07:23:16;;;;;;;3.15;2.05;;;17.60;99.90;;;19.36;65.52;96507.97;5033334;28;20052;-53
2023/07/25 07:25:45;;;;;;;2.83;2.00;;;17.70;99.90;;;19.41;65.21;96501.88;5031946;28;20501;-52
2023/07/25 07:28:13;;;;;;;3.22;1.85;;;17.70;99.90;;;19.45;65.34;96503.00;5033004;28;20117;-53
2023/07/25 07:30:41;;;;;;;5.15;1.90;;;17.80;99.90;;;19.51;65.09;96504.72;5033032;28;20041;-53
2023/07/25 07:33:08;;;;;;;2.90;1.83;;;17.80;99.90;;;19.57;65.08;96502.91;5033459;28;20052;-54
2023/07/25 07:35:36;;;;;;;2.70;2.03;;;18.00;99.90;;;19.58;65.28;96509.94;5033126;28;20049;-52
2023/07/25 07:38:04;;;;;;;2.38;1.88;;;18.00;99.90;;;19.60;65.15;96511.34;5031709;28;20412;-53
2023/07/25 07:40:33;;;;;;;3.58;2.35;;;18.00;99.90;;;19.61;65.08;96510.25;5033115;28;20045;-51
2023/07/25 07:43:01;;;;;;;5.78;2.33;;;17.90;99.90;;;19.65;65.00;96505.19;5024840;28;20038;-50
2023/07/25 07:45:31;;;;;;;3.13;1.83;;;18.00;99.90;;;19.71;64.92;96515.00;5031714;28;20050;-52
2023/07/25 07:48:00;;;;;;;3.15;2.13;;;18.10;99.90;;;19.78;65.01;96507.59;5032463;28;20068;-51
2023/07/25 07:50:29;;;;;;;2.85;2.28;;;18.30;99.90;;;19.83;64.92;96509.53;5032557;28;20076;-50
2023/07/25 07:52:57;;;;;;;3.67;2.05;;;18.30;99.90;;;19.85;64.69;96505.53;5032862;28;20090;-49
2023/07/25 07:55:24;;;;;;;4.40;1.80;;;18.30;99.90;;;19.91;64.32;96509.13;5031116;28;20051;-53
2023/07/25 07:57:52;;;;;;;3.22;1.73;;;18.40;99.90;;;19.94;64.33;96507.81;5032253;28;20084;-50
2023/07/25 08:00:20;;;;;;;4.95;1.95;;;18.40;99.90;;;20.04;64.22;96507.94;5031603;28;20060;-52
2023/07/25 08:02:49;;;;;;;3.25;1.98;;;18.60;99.90;;;20.15;64.19;96507.03;5031255;28;20064;-52
2023/07/25 08:05:18;;;;;;;3.33;2.00;;;18.80;99.90;;;20.26;63.73;96506.09;5033274;28;20057;-50
2023/07/25 08:07:45;;;;;;;4.80;1.88;;;18.90;99.90;;;20.34;63.43;96501.31;5032547;28;20045;-51
2023/07/25 08:10:13;;;;;;;5.68;2.00;;;19.10;99.90;;;20.40;62.65;96505.72;5033269;28;20056;-50
2023/07/25 08:12:41;;;;;;;3.28;2.20;;;19.20;99.90;;;20.42;62.11;96507.09;5033501;28;20052;-52
2023/07/25 08:15:10;;;;;;;3.15;2.10;;;19.20;99.90;;;20.44;61.90;96504.97;5033245;28;20064;-50
2023/07/25 08:17:37;;;;;;;2.13;1.77;;;19.20;99.90;;;20.51;61.73;96503.94;5032568;28;20045;-54
2023/07/25 08:20:06;;;;;;;2.70;1.75;;;19.20;99.90;;;20.61;61.35;96498.72;5023756;28;20049;-51
2023/07/25 08:22:33;;;;;;;2.95;2.13;;;19.30;99.90;;;20.67;61.04;96503.09;5032188;28;20049;-54
2023/07/25 08:25:01;;;;;;;4.05;1.83;;;19.50;99.90;;;20.82;60.94;96507.84;5032187;28;20045;-50
2023/07/25 08:27:29;;;;;;;3.55;1.80;;;19.60;99.90;;;20.99;61.42;96491.50;5032034;28;20041;-54
2023/07/25 08:29:56;;;;;;;3.88;2.08;;;19.80;99.90;;;21.15;60.63;96500.59;5032066;28;20042;-50
2023/07/25 08:32:25;;;;;;;2.50;1.80;;;20.00;99.90;;;21.24;60.11;96494.44;5032250;28;20049;-55
2023/07/25 08:34:53;;;;;;;2.28;1.80;;;20.20;99.60;;;21.16;58.77;96503.03;5030622;28;20129;-50
2023/07/25 08:37:22;;;;;;;3.13;2.20;;;20.10;95.80;;;21.24;59.13;96496.34;5031642;28;20061;-52
2023/07/25 08:39:50;;;;;;;3.13;1.90;;;20.10;98.30;;;21.26;58.76;96505.03;5032069;28;20053;-53
2023/07/25 08:42:19;;;;;;;2.60;1.92;;;20.00;97.50;;;21.31;58.57;96504.28;5031837;28;20037;-48
2023/07/25 08:44:52;;;;;;;2.97;1.70;;;20.10;96.70;;;21.34;58.34;96504.53;5030351;28;20421;-54
2023/07/25 08:47:26;;;;;;;2.63;2.15;;;20.10;97.60;;;21.35;58.55;96502.69;5031580;28;20048;-51
2023/07/25 08:49:57;;;;;;;2.42;1.80;;;20.10;96.80;;;21.39;58.45;96503.78;5029211;28;20041;-53
2023/07/25 08:52:30;;;;;;;3.15;1.98;;;20.10;97.80;;;21.41;57.80;96497.03;5031343;28;20053;-49
2023/07/25 08:54:58;;;;;;;2.67;1.80;;;20.10;96.60;;;21.39;58.14;96498.38;5031565;28;20057;-50
2023/07/25 08:57:27;;;;;;;3.97;2.20;;;20.10;95.70;;;21.41;57.63;96498.94;5030504;28;20056;-50
2023/07/25 08:59:55;;;;;;;3.50;2.30;;;20.10;96.80;;;21.46;58.03;96493.59;5031291;28;20052;-52
2023/07/25 09:02:23;;;;;;;4.13;2.58;;;20.10;96.60;;;21.47;56.98;96499.81;5030255;28;20481;-50
2023/07/25 09:04:52;;;;;;;3.08;1.58;;;20.20;95.40;;;21.40;55.57;96495.41;5030210;28;20037;-55
2023/07/25 09:07:20;;;;;;;3.13;2.40;;;20.20;91.90;;;21.41;55.67;96496.22;5030023;28;20049;-53
2023/07/25 09:09:51;;;;;;;4.50;1.90;;;20.10;90.00;;;21.34;55.66;96492.91;5031096;28;20048;-54
2023/07/25 09:12:18;;;;;;;3.63;1.70;;;20.10;91.10;;;21.32;55.24;96485.03;5038737;28;20041;-52
2023/07/25 09:14:46;;;;;;;2.50;1.80;;;20.00;90.40;;;21.27;55.39;96486.88;5030176;28;20582;-52
2023/07/25 09:17:14;;;;;;;3.45;1.73;;;20.00;90.30;;;21.34;55.53;96493.72;5025542;28;20120;-50
2023/07/25 09:19:42;;;;;;;2.08;1.70;;;20.10;90.80;;;21.43;55.28;96486.78;5038348;28;20508;-50
2023/07/25 09:22:28;;;;;;;2.22;1.50;;;20.20;90.60;;;21.30;53.92;96479.06;5031040;28;20041;-52
2023/07/25 09:24:57;;;;;;;3.65;1.60;;;20.10;84.40;;;21.39;54.30;96488.34;5031266;28;20038;-54
2023/07/25 09:27:26;;;;;;;2.75;1.77;;;20.10;85.30;;;21.29;54.26;96468.53;5030396;28;20040;-54
2023/07/25 09:29:54;;;;;;;2.90;1.65;;;20.10;87.10;;;21.32;54.58;96476.91;5032303;28;20048;-49
2023/07/25 09:32:25;;;;;;;3.20;1.55;;;20.10;86.60;;;21.29;53.59;96466.63;5031139;28;20056;-49
2023/07/25 09:34:55;;;;;;;2.92;2.50;;;20.20;84.80;;;21.43;53.30;96464.28;5030100;28;20037;-49
2023/07/25 09:37:23;;;;;;;3.78;1.83;;;20.40;83.00;;;21.56;53.74;96469.31;5038766;28;20049;-51
2023/07/25 09:39:51;;;;;;;4.03;1.80;;;20.50;84.90;;;21.63;52.95;96466.34;5037827;28;20041;-52
2023/07/25 09:42:24;;;;;;;3.60;1.98;;;20.60;83.00;;;21.63;52.64;96463.66;5030537;28;20034;-50
2023/07/25 09:44:53;;;;;;;2.60;1.80;;;20.70;81.80;;;21.77;52.85;96456.72;5031827;28;20049;-50
2023/07/25 09:47:26;;;;;;;8.07;4.78;;;20.70;82.40;;;21.83;52.89;96462.97;5036954;28;20046;-51
2023/07/25 09:49:56;;;;;;;6.82;5.07;;;20.90;82.50;;;21.92;52.66;96469.50;5030800;28;20034;-53
2023/07/25 09:52:24;;;;;;;4.60;3.55;;;20.90;82.10;;;21.77;51.86;96470.25;5031340;28;20046;-54
2023/07/25 09:54:51;;;;;;;3.78;2.70;;;20.80;80.50;;;21.69;51.36;96470.72;5030735;28;20052;-51
2023/07/25 09:57:19;;;;;;;8.68;5.50;;;20.70;76.30;;;21.73;51.76;96473.72;5030822;28;20049;-52
2023/07/25 09:59:49;;;;;;;3.47;1.83;;;20.70;78.00;;;21.70;50.94;96469.66;5029591;28;20049;-52
2023/07/25 10:02:17;;;;;;;2.97;2.00;;;20.70;76.20;;;21.69;51.47;96475.34;5022892;28;20045;-53
2023/07/25 10:04:47;;;;;;;4.10;2.33;;;20.80;76.50;;;21.92;52.05;96482.25;5030707;28;20040;-50
2023/07/25 10:07:15;;;;;;;3.15;2.13;;;21.00;77.50;;;21.91;49.99;96469.78;5030145;28;20052;-48
2023/07/25 10:09:46;;;;;;;4.13;1.85;;;21.00;70.70;;;21.90;48.74;96458.13;5033156;28;20045;-51
2023/07/25 10:12:13;;;;;;;2.78;1.65;;;21.00;70.30;;;22.07;49.60;96463.38;5034018;28;20052;-54
2023/07/25 10:14:41;;;;;;;4.28;1.73;;;21.10;72.60;;;22.07;48.92;96468.78;5033989;28;20046;-54
2023/07/25 10:17:09;;;;;;;2.53;2.00;;;21.00;70.70;;;22.09;49.25;96463.91;5032557;28;20048;-53
2023/07/25 10:19:55;;;;;;;2.05;1.52;;;21.00;71.30;;;22.13;48.77;96464.22;5032052;28;20045;-53
2023/07/25 10:22:34;;;;;;;3.33;2.10;;;21.00;67.80;;;22.13;48.43;96461.50;5026764;28;20049;-54
2023/07/25 10:25:09;;;;;;;2.35;2.00;;;21.10;69.10;;;22.12;48.18;96463.41;5034317;28;20144;-50